createdAt,value
2018-10-19T00:00:18.004Z,0.00
2018-10-19T00:01:18.234Z,0.00
2018-10-19T00:02:18.419Z,0.00
2018-10-19T00:03:18.631Z,0.00
2018-10-19T00:04:18.827Z,0.00
2018-10-19T00:05:18.941Z,0.00
2018-10-19T00:06:22.067Z,0.00
2018-10-19T00:07:19.276Z,0.00
2018-10-19T00:08:19.469Z,0.00
2018-10-19T00:09:19.690Z,0.00
2018-10-19T00:10:19.803Z,0.00
2018-10-19T00:11:19.881Z,0.00
2018-10-19T00:12:20.178Z,0.00
2018-10-19T00:13:20.270Z,0.00
2018-10-19T00:14:20.376Z,0.00
2018-10-19T00:15:20.595Z,0.00
2018-10-19T00:16:20.801Z,0.00
2018-10-19T00:17:21.017Z,0.00
2018-10-19T00:18:21.213Z,0.00
2018-10-19T00:19:21.419Z,0.00
2018-10-19T00:20:21.625Z,0.00
2018-10-19T00:21:21.832Z,0.00
2018-10-19T00:22:22.039Z,0.00
2018-10-19T00:23:22.256Z,0.00
2018-10-19T00:24:22.467Z,0.00
2018-10-19T00:25:22.675Z,0.00
2018-10-19T00:26:22.892Z,0.00
2018-10-19T00:27:23.099Z,0.00
2018-10-19T00:28:23.324Z,0.00
2018-10-19T00:29:23.407Z,0.00
2018-10-19T00:30:23.602Z,0.00
2018-10-19T00:31:23.820Z,0.00
2018-10-19T00:32:23.912Z,0.00
2018-10-19T00:33:32.317Z,0.00
2018-10-19T00:34:32.390Z,0.00
2018-10-19T00:35:24.453Z,0.00
2018-10-19T00:36:24.688Z,0.00
2018-10-19T00:37:24.824Z,0.00
2018-10-19T00:38:32.645Z,0.00
2018-10-19T00:39:32.707Z,0.00
2018-10-19T00:40:25.274Z,0.00
2018-10-19T00:41:25.467Z,0.00
2018-10-19T00:42:25.590Z,0.00
2018-10-19T00:43:25.783Z,0.00
2018-10-19T00:44:26.012Z,0.00
2018-10-19T00:45:26.076Z,0.00
2018-10-19T00:46:26.275Z,0.00
2018-10-19T00:47:26.537Z,0.00
2018-10-19T00:48:26.606Z,0.00
2018-10-19T00:49:26.831Z,0.00
2018-10-19T00:50:27.010Z,0.00
2018-10-19T00:51:27.203Z,0.00
2018-10-19T00:52:27.421Z,0.00
2018-10-19T00:53:27.617Z,0.00
2018-10-19T00:54:27.826Z,0.00
2018-10-19T00:55:28.061Z,0.00
2018-10-19T00:56:28.148Z,0.00
2018-10-19T00:57:28.383Z,0.00
2018-10-19T00:58:28.455Z,0.00
2018-10-19T00:59:28.676Z,0.00
2018-10-19T01:00:28.769Z,0.00
2018-10-19T01:01:28.988Z,0.00
2018-10-19T01:02:29.079Z,0.00
2018-10-19T01:03:29.267Z,0.00
2018-10-19T01:04:29.461Z,0.00
2018-10-19T01:05:29.688Z,0.00
2018-10-19T01:06:29.795Z,0.00
2018-10-19T01:07:29.921Z,0.00
2018-10-19T01:08:30.016Z,0.00
2018-10-19T01:09:30.355Z,0.00
2018-10-19T01:10:30.369Z,0.00
2018-10-19T01:11:30.476Z,0.00
2018-10-19T01:12:30.614Z,0.00
2018-10-19T01:13:30.658Z,0.00
2018-10-19T01:14:30.855Z,0.00
2018-10-19T01:15:31.052Z,0.00
2018-10-19T01:16:31.262Z,0.00
2018-10-19T01:17:31.485Z,0.00
2018-10-19T01:18:31.572Z,0.00
2018-10-19T01:19:31.793Z,0.00
2018-10-19T01:20:31.886Z,0.00
2018-10-19T01:21:32.104Z,0.00
2018-10-19T01:22:32.311Z,0.00
2018-10-19T01:23:32.403Z,0.00
2018-10-19T01:24:32.617Z,0.00
2018-10-19T01:25:32.804Z,0.00
2018-10-19T01:26:33.019Z,0.00
2018-10-19T01:27:33.244Z,0.00
2018-10-19T01:28:33.439Z,0.00
2018-10-19T01:29:33.668Z,0.00
2018-10-19T01:30:33.869Z,0.00
2018-10-19T01:31:34.077Z,0.00
2018-10-19T01:32:34.290Z,0.00
2018-10-19T01:33:34.505Z,0.00
2018-10-19T01:34:34.593Z,0.00
2018-10-19T01:35:34.830Z,0.00
2018-10-19T01:36:34.920Z,0.00
2018-10-19T01:37:35.114Z,0.00
2018-10-19T01:38:35.331Z,0.00
2018-10-19T01:39:35.413Z,0.00
2018-10-19T01:40:35.650Z,0.00
2018-10-19T01:41:35.740Z,0.00
2018-10-19T01:42:35.929Z,0.00
2018-10-19T01:43:36.154Z,0.00
2018-10-19T01:44:36.349Z,0.00
2018-10-19T01:45:36.589Z,0.00
2018-10-19T01:46:36.687Z,0.00
2018-10-19T01:47:36.889Z,0.00
2018-10-19T01:48:37.105Z,0.00
2018-10-19T01:49:37.320Z,0.00
2018-10-19T01:50:37.461Z,0.00
2018-10-19T01:51:37.555Z,0.00
2018-10-19T01:52:37.769Z,0.00
2018-10-19T01:53:37.993Z,0.00
2018-10-19T01:54:38.073Z,0.00
2018-10-19T01:55:38.281Z,0.00
2018-10-19T01:56:38.487Z,0.00
2018-10-19T01:57:38.687Z,0.00
2018-10-19T01:58:38.912Z,0.00
2018-10-19T01:59:39.131Z,0.00
2018-10-19T02:00:39.342Z,0.00
2018-10-19T02:01:39.553Z,0.00
2018-10-19T02:02:39.782Z,0.00
2018-10-19T02:03:39.971Z,0.00
2018-10-19T02:04:40.192Z,0.00
2018-10-19T02:05:40.303Z,0.00
2018-10-19T02:06:40.387Z,0.00
2018-10-19T02:07:40.484Z,0.00
2018-10-19T02:08:40.680Z,0.00
2018-10-19T02:09:40.885Z,0.00
2018-10-19T02:10:41.104Z,0.00
2018-10-19T02:11:41.339Z,0.00
2018-10-19T02:12:41.421Z,0.00
2018-10-19T02:13:41.633Z,0.00
2018-10-19T02:14:41.843Z,0.00
2018-10-19T02:15:42.075Z,0.00
2018-10-19T02:16:42.224Z,0.00
2018-10-19T02:17:42.308Z,0.00
2018-10-19T02:18:42.518Z,0.00
2018-10-19T02:19:42.728Z,0.00
2018-10-19T02:20:42.924Z,0.00
2018-10-19T02:21:43.136Z,0.00
2018-10-19T02:22:43.357Z,0.00
2018-10-19T02:23:43.572Z,0.00
2018-10-19T02:24:43.781Z,0.00
2018-10-19T02:25:43.990Z,0.00
2018-10-19T02:26:44.200Z,0.00
2018-10-19T02:27:44.398Z,0.00
2018-10-19T02:28:44.587Z,0.00
2018-10-19T02:29:44.785Z,0.00
2018-10-19T02:30:44.991Z,0.00
2018-10-19T02:31:45.224Z,0.00
2018-10-19T02:32:45.317Z,0.00
2018-10-19T02:33:45.514Z,0.00
2018-10-19T02:34:45.747Z,0.00
2018-10-19T02:35:46.005Z,0.00
2018-10-19T02:36:46.078Z,0.00
2018-10-19T02:37:46.277Z,0.00
2018-10-19T02:38:46.484Z,0.00
2018-10-19T02:39:46.700Z,0.00
2018-10-19T02:40:46.912Z,0.00
2018-10-19T02:41:47.106Z,0.00
2018-10-19T02:42:47.331Z,0.00
2018-10-19T02:43:47.518Z,0.00
2018-10-19T02:44:47.769Z,0.00
2018-10-19T02:45:47.876Z,0.00
2018-10-19T02:46:47.986Z,0.00
2018-10-19T02:47:55.941Z,0.00
2018-10-19T02:48:56.005Z,0.00
2018-10-19T02:49:48.451Z,0.00
2018-10-19T02:50:48.658Z,0.00
2018-10-19T02:51:48.748Z,0.00
2018-10-19T02:52:57.362Z,0.00
2018-10-19T02:53:49.115Z,0.00
2018-10-19T02:54:57.392Z,0.00
2018-10-19T02:55:49.460Z,0.00
2018-10-19T02:56:49.707Z,0.00
2018-10-19T02:57:49.804Z,0.00
2018-10-19T02:58:49.932Z,0.00
2018-10-19T02:59:50.006Z,0.00
2018-10-19T03:00:50.227Z,0.00
2018-10-19T03:01:50.426Z,0.00
2018-10-19T03:02:50.544Z,0.00
2018-10-19T03:03:50.741Z,0.00
2018-10-19T03:04:50.950Z,0.00
2018-10-19T03:05:51.201Z,0.00
2018-10-19T03:06:51.282Z,0.00
2018-10-19T03:07:51.476Z,0.00
2018-10-19T03:08:51.694Z,0.00
2018-10-19T03:09:51.911Z,0.00
2018-10-19T03:10:52.136Z,0.00
2018-10-19T03:11:52.315Z,0.00
2018-10-19T03:12:52.544Z,0.00
2018-10-19T03:13:52.750Z,0.00
2018-10-19T03:14:53.513Z,0.00
2018-10-19T03:15:53.065Z,0.00
2018-10-19T03:16:53.274Z,0.00
2018-10-19T03:17:53.495Z,0.00
2018-10-19T03:18:53.649Z,0.00
2018-10-19T03:19:53.739Z,0.00
2018-10-19T03:20:53.999Z,0.00
2018-10-19T03:21:54.061Z,0.00
2018-10-19T03:22:54.293Z,0.00
2018-10-19T03:23:54.499Z,0.00
2018-10-19T03:24:54.582Z,0.00
2018-10-19T03:25:54.770Z,0.00
2018-10-19T03:26:55.310Z,0.00
2018-10-19T03:27:55.124Z,0.00
2018-10-19T03:28:55.210Z,0.00
2018-10-19T03:29:55.457Z,0.00
2018-10-19T03:30:55.656Z,0.00
2018-10-19T03:31:55.791Z,0.00
2018-10-19T03:32:55.887Z,0.00
2018-10-19T03:33:56.193Z,0.00
2018-10-19T03:34:56.366Z,0.00
2018-10-19T03:35:56.435Z,0.00
2018-10-19T03:36:56.641Z,0.00
2018-10-19T03:37:56.838Z,0.00
2018-10-19T03:38:57.060Z,0.00
2018-10-19T03:39:57.262Z,0.00
2018-10-19T03:40:57.412Z,0.00
2018-10-19T03:41:57.549Z,0.00
2018-10-19T03:42:57.748Z,0.00
2018-10-19T03:43:57.885Z,0.00
2018-10-19T03:44:58.045Z,0.00
2018-10-19T03:45:58.237Z,0.00
2018-10-19T03:46:58.380Z,0.00
2018-10-19T03:47:58.414Z,0.00
2018-10-19T03:48:58.708Z,0.00
2018-10-19T03:49:58.746Z,0.00
2018-10-19T03:50:58.984Z,0.00
2018-10-19T03:51:59.062Z,0.00
2018-10-19T03:52:59.282Z,0.00
2018-10-19T03:53:59.489Z,0.00
2018-10-19T03:54:59.699Z,0.00
2018-10-19T03:55:59.819Z,0.00
2018-10-19T03:56:59.937Z,0.00
2018-10-19T03:58:00.009Z,0.00
2018-10-19T03:59:00.201Z,0.00
2018-10-19T04:00:00.395Z,0.00
2018-10-19T04:01:00.515Z,0.00
2018-10-19T04:02:00.624Z,0.00
2018-10-19T04:03:00.728Z,0.00
2018-10-19T04:04:00.941Z,0.00
2018-10-19T04:05:01.200Z,0.00
2018-10-19T04:06:01.364Z,0.00
2018-10-19T04:07:01.571Z,0.00
2018-10-19T04:08:01.809Z,0.00
2018-10-19T04:09:04.686Z,0.00
2018-10-19T04:10:10.726Z,0.00
2018-10-19T04:11:04.155Z,0.00
2018-10-19T04:12:04.251Z,0.00
2018-10-19T04:13:03.541Z,0.00
2018-10-19T04:14:04.558Z,0.00
2018-10-19T04:15:04.444Z,0.00
2018-10-19T04:16:04.950Z,0.00
2018-10-19T04:17:06.453Z,0.00
2018-10-19T04:18:05.810Z,0.00
2018-10-19T04:19:05.871Z,0.00
2018-10-19T04:20:06.928Z,0.00
2018-10-19T04:21:05.434Z,0.00
2018-10-19T04:22:07.906Z,0.00
2018-10-19T04:23:06.618Z,0.00
2018-10-19T04:24:06.442Z,0.00
2018-10-19T04:25:06.839Z,0.00
2018-10-19T04:26:07.745Z,0.00
2018-10-19T04:27:07.458Z,0.00
2018-10-19T04:28:07.645Z,0.00
2018-10-19T04:29:05.642Z,0.00
2018-10-19T04:30:05.528Z,0.00
2018-10-19T04:31:05.638Z,0.00
2018-10-19T04:32:05.739Z,0.00
2018-10-19T04:33:06.036Z,0.00
2018-10-19T04:34:06.042Z,0.00
2018-10-19T04:35:07.890Z,0.00
2018-10-19T04:36:06.343Z,0.00
2018-10-19T04:37:06.460Z,0.00
2018-10-19T04:38:06.564Z,0.00
2018-10-19T04:39:06.694Z,0.00
2018-10-19T04:40:06.874Z,0.00
2018-10-19T04:41:07.076Z,0.00
2018-10-19T04:42:07.395Z,0.00
2018-10-19T04:43:07.504Z,0.00
2018-10-19T04:44:07.760Z,0.00
2018-10-19T04:45:07.880Z,0.00
2018-10-19T04:46:07.943Z,0.00
2018-10-19T04:47:08.220Z,0.00
2018-10-19T04:48:08.386Z,0.00
2018-10-19T04:49:08.472Z,0.00
2018-10-19T04:50:08.668Z,0.00
2018-10-19T04:51:08.958Z,0.00
2018-10-19T04:52:08.993Z,0.00
2018-10-19T04:53:09.315Z,0.00
2018-10-19T04:54:09.328Z,0.00
2018-10-19T04:55:09.455Z,0.00
2018-10-19T04:56:09.730Z,0.00
2018-10-19T04:57:09.835Z,0.00
2018-10-19T04:58:10.009Z,0.00
2018-10-19T04:59:10.275Z,0.00
2018-10-19T05:00:10.455Z,0.00
2018-10-19T05:01:10.671Z,0.00
2018-10-19T05:02:18.564Z,0.00
2018-10-19T05:03:18.704Z,0.00
2018-10-19T05:04:11.120Z,0.00
2018-10-19T05:05:11.367Z,0.00
2018-10-19T05:06:11.652Z,0.00
2018-10-19T05:07:19.920Z,0.00
2018-10-19T05:08:20.047Z,0.00
2018-10-19T05:09:12.039Z,0.00
2018-10-19T05:10:12.134Z,0.00
2018-10-19T05:11:12.522Z,0.00
2018-10-19T05:12:12.555Z,0.00
2018-10-19T05:13:12.627Z,0.00
2018-10-19T05:14:12.925Z,0.00
2018-10-19T05:15:13.041Z,0.00
2018-10-19T05:16:13.258Z,0.00
2018-10-19T05:17:13.407Z,0.00
2018-10-19T05:18:13.558Z,0.00
2018-10-19T05:19:14.813Z,0.00
2018-10-19T05:20:14.055Z,0.00
2018-10-19T05:21:14.107Z,0.00
2018-10-19T05:22:14.201Z,0.00
2018-10-19T05:23:14.452Z,4.00
2018-10-19T05:24:14.607Z,4.00
2018-10-19T05:25:14.828Z,0.00
2018-10-19T05:26:15.055Z,0.00
2018-10-19T05:27:15.232Z,4.00
2018-10-19T05:28:15.431Z,4.00
2018-10-19T05:29:15.761Z,0.00
2018-10-19T05:30:15.766Z,4.00
2018-10-19T05:31:15.993Z,8.00
2018-10-19T05:32:16.281Z,4.00
2018-10-19T05:33:16.442Z,4.00
2018-10-19T05:34:16.532Z,8.00
2018-10-19T05:35:21.300Z,8.00
2018-10-19T05:36:20.212Z,12.00
2018-10-19T05:37:18.691Z,12.00
2018-10-19T05:38:17.285Z,12.00
2018-10-19T05:39:17.284Z,16.00
2018-10-19T05:40:17.395Z,12.00
2018-10-19T05:41:17.557Z,16.00
2018-10-19T05:42:17.565Z,16.00
2018-10-19T05:43:17.794Z,20.00
2018-10-19T05:44:17.867Z,20.00
2018-10-19T05:45:18.061Z,20.00
2018-10-19T05:46:18.714Z,24.00
2018-10-19T05:47:18.470Z,24.00
2018-10-19T05:48:18.675Z,28.00
2018-10-19T05:49:18.883Z,36.00
2018-10-19T05:50:19.085Z,40.00
2018-10-19T05:51:19.311Z,36.00
2018-10-19T05:52:19.509Z,40.00
2018-10-19T05:53:19.708Z,40.00
2018-10-19T05:54:19.806Z,44.00
2018-10-19T05:55:20.019Z,52.00
2018-10-19T05:56:20.224Z,60.00
2018-10-19T05:57:20.476Z,68.00
2018-10-19T05:58:20.548Z,72.00
2018-10-19T05:59:20.779Z,80.00
2018-10-19T06:00:20.877Z,88.00
2018-10-19T06:01:20.972Z,92.00
2018-10-19T06:02:21.300Z,96.00
2018-10-19T06:03:21.446Z,104.00
2018-10-19T06:04:21.570Z,112.00
2018-10-19T06:05:21.721Z,124.00
2018-10-19T06:06:21.798Z,136.00
2018-10-19T06:07:22.143Z,140.00
2018-10-19T06:08:22.179Z,144.00
2018-10-19T06:09:22.416Z,152.00
2018-10-19T06:10:22.524Z,156.00
2018-10-19T06:11:22.619Z,156.00
2018-10-19T06:12:22.808Z,160.00
2018-10-19T06:13:23.002Z,176.00
2018-10-19T06:14:23.234Z,168.00
2018-10-19T06:15:23.393Z,152.00
2018-10-19T06:16:23.431Z,156.00
2018-10-19T06:17:23.653Z,172.00
2018-10-19T06:18:23.849Z,188.00
2018-10-19T06:19:24.076Z,192.00
2018-10-19T06:20:24.186Z,192.00
2018-10-19T06:21:24.344Z,216.00
2018-10-19T06:22:24.424Z,256.00
2018-10-19T06:23:24.629Z,268.00
2018-10-19T06:24:24.862Z,248.00
2018-10-19T06:25:24.970Z,264.00
2018-10-19T06:26:25.124Z,260.00
2018-10-19T06:27:25.192Z,236.00
2018-10-19T06:28:25.270Z,276.00
2018-10-19T06:29:25.411Z,320.00
2018-10-19T06:30:25.499Z,368.00
2018-10-19T06:31:25.809Z,388.00
2018-10-19T06:32:25.920Z,428.00
2018-10-19T06:33:25.997Z,464.00
2018-10-19T06:34:26.266Z,488.00
2018-10-19T06:35:26.395Z,496.00
2018-10-19T06:36:26.529Z,496.00
2018-10-19T06:37:26.641Z,496.00
2018-10-19T06:38:26.754Z,492.00
2018-10-19T06:39:26.850Z,544.00
2018-10-19T06:40:27.051Z,608.00
2018-10-19T06:41:27.236Z,628.00
2018-10-19T06:42:28.341Z,644.00
2018-10-19T06:43:27.547Z,624.00
2018-10-19T06:44:27.764Z,600.00
2018-10-19T06:45:27.988Z,588.00
2018-10-19T06:46:28.132Z,656.00
2018-10-19T06:47:28.195Z,728.00
2018-10-19T06:48:28.405Z,724.00
2018-10-19T06:49:28.485Z,684.00
2018-10-19T06:50:28.696Z,696.00
2018-10-19T06:51:28.916Z,672.00
2018-10-19T06:52:29.758Z,596.00
2018-10-19T06:53:29.239Z,556.00
2018-10-19T06:54:29.331Z,576.00
2018-10-19T06:55:29.413Z,600.00
2018-10-19T06:56:29.641Z,600.00
2018-10-19T06:57:29.755Z,552.00
2018-10-19T06:58:29.843Z,524.00
2018-10-19T06:59:31.075Z,548.00
2018-10-19T07:00:30.334Z,572.00
2018-10-19T07:01:30.419Z,560.00
2018-10-19T07:02:30.514Z,556.00
2018-10-19T07:03:30.720Z,616.00
2018-10-19T07:04:30.918Z,668.00
2018-10-19T07:05:31.160Z,656.00
2018-10-19T07:06:31.322Z,680.00
2018-10-19T07:07:31.519Z,640.00
2018-10-19T07:08:31.858Z,612.00
2018-10-19T07:09:31.839Z,680.00
2018-10-19T07:10:32.053Z,700.00
2018-10-19T07:11:32.261Z,608.00
2018-10-19T07:12:32.528Z,560.00
2018-10-19T07:13:32.610Z,576.00
2018-10-19T07:14:32.821Z,572.00
2018-10-19T07:15:33.033Z,560.00
2018-10-19T07:16:33.286Z,560.00
2018-10-19T07:17:34.517Z,604.00
2018-10-19T07:18:33.624Z,644.00
2018-10-19T07:19:33.792Z,592.00
2018-10-19T07:20:33.868Z,568.00
2018-10-19T07:21:34.081Z,612.00
2018-10-19T07:22:34.319Z,680.00
2018-10-19T07:23:34.427Z,736.00
2018-10-19T07:24:34.845Z,764.00
2018-10-19T07:25:34.706Z,840.00
2018-10-19T07:26:34.943Z,900.00
2018-10-19T07:27:34.954Z,924.00
2018-10-19T07:28:35.128Z,928.00
2018-10-19T07:29:35.353Z,940.00
2018-10-19T07:30:35.480Z,912.00
2018-10-19T07:31:35.596Z,916.00
2018-10-19T07:32:35.715Z,912.00
2018-10-19T07:33:35.963Z,848.00
2018-10-19T07:34:36.904Z,800.00
2018-10-19T07:35:36.123Z,768.00
2018-10-19T07:36:36.489Z,768.00
2018-10-19T07:37:36.704Z,752.00
2018-10-19T07:38:36.888Z,760.00
2018-10-19T07:39:36.828Z,876.00
2018-10-19T07:40:37.053Z,896.00
2018-10-19T07:41:37.149Z,852.00
2018-10-19T07:42:37.353Z,860.00
2018-10-19T07:43:38.358Z,852.00
2018-10-19T07:44:37.953Z,792.00
2018-10-19T07:45:37.809Z,732.00
2018-10-19T07:46:38.227Z,692.00
2018-10-19T07:47:38.363Z,696.00
2018-10-19T07:48:39.048Z,716.00
2018-10-19T07:49:38.766Z,724.00
2018-10-19T07:50:38.927Z,760.00
2018-10-19T07:51:39.257Z,848.00
2018-10-19T07:52:39.244Z,896.00
2018-10-19T07:53:39.537Z,924.00
2018-10-19T07:54:39.695Z,960.00
2018-10-19T07:55:39.760Z,992.00
2018-10-19T07:56:40.305Z,1012.00
2018-10-19T07:57:40.135Z,1024.00
2018-10-19T07:58:40.724Z,972.00
2018-10-19T07:59:40.612Z,884.00
2018-10-19T08:00:41.146Z,804.00
2018-10-19T08:01:40.798Z,796.00
2018-10-19T08:02:40.977Z,792.00
2018-10-19T08:03:41.164Z,764.00
2018-10-19T08:04:41.148Z,748.00
2018-10-19T08:05:41.415Z,744.00
2018-10-19T08:06:41.724Z,732.00
2018-10-19T08:07:41.743Z,716.00
2018-10-19T08:08:42.087Z,716.00
2018-10-19T08:09:42.233Z,728.00
2018-10-19T08:10:42.447Z,772.00
2018-10-19T08:11:42.542Z,840.00
2018-10-19T08:12:42.627Z,908.00
2018-10-19T08:13:42.712Z,980.00
2018-10-19T08:14:42.735Z,1104.00
2018-10-19T08:15:43.697Z,1232.00
2018-10-19T08:16:44.786Z,1296.00
2018-10-19T08:17:43.310Z,1232.00
2018-10-19T08:18:43.337Z,1252.00
2018-10-19T08:19:43.758Z,1292.00
2018-10-19T08:20:44.892Z,1300.00
2018-10-19T08:21:45.555Z,1296.00
2018-10-19T08:22:45.014Z,1336.00
2018-10-19T08:23:45.663Z,1400.00
2018-10-19T08:24:44.855Z,1444.00
2018-10-19T08:25:45.394Z,1488.00
2018-10-19T08:26:45.661Z,1516.00
2018-10-19T08:27:47.316Z,1560.00
2018-10-19T08:28:46.124Z,1532.00
2018-10-19T08:29:45.163Z,1556.00
2018-10-19T08:30:46.298Z,1560.00
2018-10-19T08:31:46.047Z,1568.00
2018-10-19T08:32:45.807Z,1676.00
2018-10-19T08:33:45.789Z,1672.00
2018-10-19T08:34:46.162Z,1692.00
2018-10-19T08:35:46.040Z,1732.00
2018-10-19T08:36:46.131Z,1780.00
2018-10-19T08:37:46.362Z,1776.00
2018-10-19T08:38:46.464Z,1700.00
2018-10-19T08:39:46.571Z,1544.00
2018-10-19T08:40:46.643Z,1544.00
2018-10-19T08:41:47.137Z,1556.00
2018-10-19T08:42:47.027Z,1532.00
2018-10-19T08:43:47.139Z,1468.00
2018-10-19T08:44:47.263Z,1424.00
2018-10-19T08:45:47.381Z,1552.00
2018-10-19T08:46:47.450Z,1552.00
2018-10-19T08:47:47.714Z,1328.00
2018-10-19T08:48:47.896Z,1108.00
2018-10-19T08:49:47.975Z,1032.00
2018-10-19T08:50:48.194Z,1020.00
2018-10-19T08:51:48.298Z,1004.00
2018-10-19T08:52:48.498Z,948.00
2018-10-19T08:53:48.733Z,980.00
2018-10-19T08:54:48.916Z,1056.00
2018-10-19T08:55:48.956Z,1160.00
2018-10-19T08:56:49.272Z,1272.00
2018-10-19T08:57:52.306Z,1464.00
2018-10-19T08:58:49.458Z,1492.00
2018-10-19T08:59:49.637Z,1356.00
2018-10-19T09:00:50.058Z,1312.00
2018-10-19T09:01:50.022Z,1316.00
2018-10-19T09:02:50.194Z,1336.00
2018-10-19T09:03:50.375Z,1404.00
2018-10-19T09:04:50.552Z,1496.00
2018-10-19T09:05:50.729Z,1700.00
2018-10-19T09:06:50.909Z,1820.00
2018-10-19T09:07:51.142Z,1724.00
2018-10-19T09:08:51.344Z,1752.00
2018-10-19T09:09:51.515Z,1844.00
2018-10-19T09:10:51.699Z,1780.00
2018-10-19T09:11:51.923Z,1684.00
2018-10-19T09:12:52.123Z,1544.00
2018-10-19T09:13:52.477Z,1520.00
2018-10-19T09:14:52.445Z,1624.00
2018-10-19T09:15:52.599Z,1672.00
2018-10-19T09:16:52.806Z,1648.00
2018-10-19T09:17:52.981Z,1704.00
2018-10-19T09:18:53.158Z,1712.00
2018-10-19T09:19:53.330Z,1700.00
2018-10-19T09:20:53.538Z,1708.00
2018-10-19T09:21:53.699Z,1796.00
2018-10-19T09:22:53.891Z,1840.00
2018-10-19T09:23:55.431Z,1840.00
2018-10-19T09:24:55.714Z,1904.00
2018-10-19T09:25:55.190Z,1952.00
2018-10-19T09:26:55.581Z,1988.00
2018-10-19T09:27:57.570Z,2100.00
2018-10-19T09:28:56.115Z,2172.00
2018-10-19T09:29:55.899Z,2296.00
2018-10-19T09:30:56.687Z,2684.00
2018-10-19T09:31:56.069Z,3060.00
2018-10-19T09:33:05.305Z,3236.00
2018-10-19T09:33:57.773Z,3268.00
2018-10-19T09:34:57.721Z,3036.00
2018-10-19T09:35:57.485Z,2960.00
2018-10-19T09:37:06.682Z,2732.00
2018-10-19T09:38:07.289Z,2656.00
2018-10-19T09:39:05.161Z,2648.00
2018-10-19T09:39:58.856Z,2800.00
2018-10-19T09:40:57.608Z,3096.00
2018-10-19T09:41:58.091Z,3564.00
2018-10-19T09:42:58.142Z,4184.00
2018-10-19T09:43:58.199Z,4544.00
2018-10-19T09:44:59.508Z,4756.00
2018-10-19T09:45:58.988Z,4556.00
2018-10-19T09:46:59.308Z,4128.00
2018-10-19T09:47:59.248Z,4200.00
2018-10-19T09:49:00.246Z,4324.00
2018-10-19T09:49:58.540Z,4400.00
2018-10-19T09:50:58.723Z,4344.00
2018-10-19T09:52:02.378Z,4008.00
2018-10-19T09:53:01.272Z,4292.00
2018-10-19T09:54:02.212Z,4748.00
2018-10-19T09:55:03.225Z,4860.00
2018-10-19T09:56:01.020Z,4592.00
2018-10-19T09:57:02.532Z,4436.00
2018-10-19T09:58:03.531Z,4568.00
2018-10-19T09:59:02.918Z,4340.00
2018-10-19T10:00:02.256Z,4152.00
2018-10-19T10:01:00.102Z,3788.00
2018-10-19T10:02:04.909Z,3844.00
2018-10-19T10:03:03.457Z,4000.00
2018-10-19T10:04:04.355Z,3900.00
2018-10-19T10:05:04.682Z,4084.00
2018-10-19T10:06:01.702Z,4252.00
2018-10-19T10:07:02.664Z,4624.00
2018-10-19T10:08:02.498Z,4936.00
2018-10-19T10:09:01.867Z,4812.00
2018-10-19T10:10:03.867Z,4860.00
2018-10-19T10:11:05.946Z,5312.00
2018-10-19T10:12:02.019Z,5512.00
2018-10-19T10:13:06.673Z,5604.00
2018-10-19T10:14:05.320Z,5268.00
2018-10-19T10:15:06.072Z,4960.00
2018-10-19T10:16:07.297Z,5032.00
2018-10-19T10:17:04.459Z,5528.00
2018-10-19T10:18:05.661Z,5864.00
2018-10-19T10:19:03.624Z,5784.00
2018-10-19T10:20:03.426Z,5904.00
2018-10-19T10:21:03.511Z,6100.00
2018-10-19T10:22:03.740Z,6348.00
2018-10-19T10:23:03.931Z,6496.00
2018-10-19T10:24:04.137Z,6424.00
2018-10-19T10:25:04.373Z,6296.00
2018-10-19T10:26:08.180Z,6136.00
2018-10-19T10:27:08.171Z,6320.00
2018-10-19T10:28:04.827Z,6608.00
2018-10-19T10:29:05.036Z,6292.00
2018-10-19T10:30:05.607Z,6040.00
2018-10-19T10:31:07.851Z,5892.00
2018-10-19T10:32:05.754Z,5508.00
2018-10-19T10:33:05.643Z,5132.00
2018-10-19T10:34:05.785Z,4920.00
2018-10-19T10:35:05.918Z,4756.00
2018-10-19T10:36:06.103Z,4624.00
2018-10-19T10:37:06.349Z,4684.00
2018-10-19T10:38:06.429Z,5160.00
2018-10-19T10:39:06.787Z,5624.00
2018-10-19T10:40:06.979Z,5764.00
2018-10-19T10:41:06.959Z,5728.00
2018-10-19T10:42:07.176Z,5644.00
2018-10-19T10:43:07.370Z,5648.00
2018-10-19T10:44:07.505Z,5656.00
2018-10-19T10:45:07.739Z,6220.00
2018-10-19T10:46:07.866Z,6168.00
2018-10-19T10:47:08.072Z,6208.00
2018-10-19T10:48:08.219Z,6392.00
2018-10-19T10:49:08.435Z,8868.00
2018-10-19T10:50:08.597Z,7344.00
2018-10-19T10:51:08.783Z,7488.00
2018-10-19T10:52:09.005Z,7808.00
2018-10-19T10:53:09.173Z,10848.00
2018-10-19T10:54:09.365Z,10068.00
2018-10-19T10:55:09.519Z,8524.00
2018-10-19T10:56:09.664Z,8216.00
2018-10-19T10:57:09.782Z,7900.00
2018-10-19T10:58:09.971Z,7688.00
2018-10-19T10:59:09.973Z,7460.00
2018-10-19T11:00:10.169Z,7172.00
2018-10-19T11:01:10.448Z,6896.00
2018-10-19T11:02:10.579Z,6716.00
2018-10-19T11:03:10.860Z,6600.00
2018-10-19T11:04:10.993Z,6624.00
2018-10-19T11:05:11.040Z,6904.00
2018-10-19T11:06:11.265Z,7076.00
2018-10-19T11:07:11.765Z,7512.00
2018-10-19T11:08:19.573Z,7492.00
2018-10-19T11:09:11.808Z,7392.00
2018-10-19T11:10:12.097Z,7292.00
2018-10-19T11:11:12.257Z,7196.00
2018-10-19T11:12:12.568Z,7080.00
2018-10-19T11:13:12.674Z,7020.00
2018-10-19T11:14:12.698Z,7048.00
2018-10-19T11:15:13.717Z,7224.00
2018-10-19T11:16:13.149Z,8484.00
2018-10-19T11:17:13.283Z,7616.00
2018-10-19T11:18:13.389Z,7980.00
2018-10-19T11:19:13.521Z,8232.00
2018-10-19T11:20:13.725Z,7296.00
2018-10-19T11:21:13.814Z,7328.00
2018-10-19T11:22:14.608Z,6960.00
2018-10-19T11:23:14.382Z,6956.00
2018-10-19T11:24:14.756Z,6952.00
2018-10-19T11:25:14.533Z,7140.00
2018-10-19T11:26:14.673Z,7140.00
2018-10-19T11:27:14.916Z,7192.00
2018-10-19T11:28:15.114Z,7168.00
2018-10-19T11:29:15.199Z,6980.00
2018-10-19T11:30:15.570Z,6836.00
2018-10-19T11:31:15.623Z,6632.00
2018-10-19T11:32:15.650Z,6544.00
2018-10-19T11:33:15.882Z,6416.00
2018-10-19T11:34:16.034Z,6408.00
2018-10-19T11:35:16.134Z,6364.00
2018-10-19T11:36:16.230Z,6140.00
2018-10-19T11:37:16.460Z,5948.00
2018-10-19T11:38:16.528Z,5956.00
2018-10-19T11:39:17.889Z,6024.00
2018-10-19T11:40:18.239Z,6040.00
2018-10-19T11:41:18.460Z,6044.00
2018-10-19T11:42:17.487Z,5984.00
2018-10-19T11:43:20.709Z,5864.00
2018-10-19T11:44:20.839Z,5756.00
2018-10-19T11:45:19.398Z,5720.00
2018-10-19T11:46:19.958Z,5836.00
2018-10-19T11:47:20.944Z,6028.00
2018-10-19T11:48:18.106Z,6236.00
2018-10-19T11:49:20.216Z,6448.00
2018-10-19T11:50:21.293Z,6664.00
2018-10-19T11:51:20.650Z,6752.00
2018-10-19T11:52:20.691Z,6652.00
2018-10-19T11:53:20.344Z,6596.00
2018-10-19T11:54:21.281Z,6540.00
2018-10-19T11:55:20.757Z,6628.00
2018-10-19T11:56:21.421Z,6804.00
2018-10-19T11:57:21.278Z,6940.00
2018-10-19T11:58:19.701Z,7056.00
2018-10-19T11:59:21.910Z,7088.00
2018-10-19T12:00:24.388Z,7012.00
2018-10-19T12:01:22.415Z,6896.00
2018-10-19T12:02:21.582Z,6828.00
2018-10-19T12:03:23.025Z,6820.00
2018-10-19T12:04:22.292Z,6964.00
2018-10-19T12:05:23.033Z,8256.00
2018-10-19T12:06:24.453Z,9924.00
2018-10-19T12:07:22.426Z,11900.00
2018-10-19T12:08:23.576Z,8412.00
2018-10-19T12:09:21.321Z,7484.00
2018-10-19T12:10:21.693Z,7048.00
2018-10-19T12:11:22.868Z,6852.00
2018-10-19T12:12:22.673Z,6692.00
2018-10-19T12:13:22.912Z,6488.00
2018-10-19T12:14:25.258Z,6272.00
2018-10-19T12:15:23.242Z,6116.00
2018-10-19T12:16:23.779Z,6012.00
2018-10-19T12:17:24.111Z,5912.00
2018-10-19T12:18:23.636Z,5884.00
2018-10-19T12:19:23.886Z,5888.00
2018-10-19T12:20:22.871Z,6020.00
2018-10-19T12:21:23.098Z,6352.00
2018-10-19T12:22:23.320Z,6144.00
2018-10-19T12:23:25.201Z,6032.00
2018-10-19T12:24:25.452Z,5884.00
2018-10-19T12:25:24.760Z,5720.00
2018-10-19T12:26:25.019Z,5540.00
2018-10-19T12:27:25.065Z,5404.00
2018-10-19T12:28:25.329Z,5336.00
2018-10-19T12:29:26.011Z,5280.00
2018-10-19T12:30:28.622Z,5232.00
2018-10-19T12:31:26.911Z,5248.00
2018-10-19T12:32:27.197Z,5280.00
2018-10-19T12:33:25.114Z,4900.00
2018-10-19T12:34:26.607Z,4840.00
2018-10-19T12:35:26.976Z,4868.00
2018-10-19T12:36:29.600Z,4876.00
2018-10-19T12:37:29.065Z,4884.00
2018-10-19T12:38:26.917Z,4872.00
2018-10-19T12:39:26.733Z,4868.00
2018-10-19T12:40:27.795Z,4860.00
2018-10-19T12:41:27.162Z,4852.00
2018-10-19T12:42:28.387Z,4868.00
2018-10-19T12:43:26.516Z,4916.00